createdAt,value
2022-09-28T00:05:38.828Z,6.1638795986622075
2022-09-28T00:12:07.744Z,5.655518394648829
2022-09-28T00:18:37.448Z,6.478260869565218
2022-09-28T00:34:10.807Z,7.063545150501672
2022-09-28T00:41:49.086Z,7.478260869565218
2022-09-28T00:53:40.083Z,7.903010033444816
2022-09-28T01:00:08.616Z,8.411371237458194
2022-09-28T01:12:00.468Z,7.993311036789297
2022-09-28T01:18:29.741Z,8.73913043478261
2022-09-28T01:25:04.714Z,7.006688963210703
2022-09-28T01:31:33.443Z,7.505016722408027
2022-09-28T01:38:01.266Z,8.160535117056856
2022-09-28T01:44:29.504Z,8.478260869565217
2022-09-28T01:50:57.493Z,9.133779264214047
2022-09-28T01:57:25.672Z,9.127090301003344
2022-09-28T02:03:53.672Z,9.856187290969899
2022-09-28T02:17:25.531Z,10.59866220735786
2022-09-28T02:24:02.433Z,11.481605351170568
2022-09-28T02:36:33.420Z,13.200668896321071
2022-09-28T02:43:01.740Z,12.40133779264214
2022-09-28T02:49:29.772Z,11.989966555183946
2022-09-28T02:55:57.931Z,12.642140468227424
2022-09-28T03:03:09.209Z,12.866220735785953
2022-09-28T03:10:50.352Z,13.0
2022-09-28T03:25:06.181Z,15.488294314381271
2022-09-28T03:31:34.464Z,15.016722408026755
2022-09-28T03:38:02.754Z,15.648829431438127
2022-09-28T03:44:31.640Z,14.668896321070234
2022-09-28T03:54:15.957Z,16.74247491638796
2022-09-28T04:00:43.931Z,16.792642140468228
2022-09-28T04:12:53.629Z,16.752508361204015
2022-09-28T04:19:21.101Z,18.08361204013378
2022-09-28T04:29:11.252Z,15.22742474916388
2022-09-28T04:36:39.900Z,15.648829431438127
2022-09-28T04:43:07.673Z,14.80267558528428
2022-09-28T04:49:35.679Z,12.250836120401338
2022-09-28T04:56:02.507Z,12.013377926421406
2022-09-28T05:03:29.584Z,11.42809364548495
2022-09-28T05:15:39.979Z,8.581939799331103
2022-09-28T05:22:08.172Z,10.351170568561873
2022-09-28T05:34:29.980Z,9.568561872909699
2022-09-28T05:40:57.818Z,10.364548494983278
2022-09-28T05:51:23.519Z,10.65551839464883
2022-09-28T05:57:49.976Z,9.25418060200669
2022-09-28T06:04:17.242Z,15.551839464882944
2022-09-28T06:10:44.725Z,7.321070234113712
2022-09-28T06:17:11.181Z,3.9498327759197323
2022-09-28T06:23:48.987Z,4.632107023411371
2022-09-28T06:36:36.033Z,5.909698996655519
2022-09-28T06:44:47.305Z,4.655518394648829
2022-09-28T06:51:14.838Z,4.364548494983278
2022-09-28T06:57:42.472Z,4.688963210702341
2022-09-28T07:04:10.265Z,5.053511705685619
2022-09-28T07:10:37.790Z,5.311036789297659
2022-09-28T07:20:16.367Z,7.093645484949833
2022-09-28T07:26:52.348Z,6.3076923076923075
2022-09-28T07:33:18.782Z,7.290969899665551
2022-09-28T07:39:46.048Z,4.585284280936455
2022-09-28T07:49:11.436Z,3.347826086956522
2022-09-28T08:03:44.582Z,1.6120401337792643
2022-09-28T08:10:12.059Z,2.4581939799331103
2022-09-28T08:23:56.500Z,1.6120401337792643
2022-09-28T08:30:24.992Z,1.7324414715719063
2022-09-28T08:36:52.988Z,1.6555183946488294
2022-09-28T08:44:03.610Z,1.959866220735786
2022-09-28T08:50:33.199Z,1.451505016722408
2022-09-28T08:57:00.928Z,2.240802675585284
2022-09-28T09:07:41.978Z,6.270903010033445
2022-09-28T09:14:09.625Z,5.217391304347826
2022-09-28T09:21:01.438Z,4.270903010033445
2022-09-28T09:27:49.568Z,5.59866220735786
2022-09-28T09:34:18.386Z,9.08361204013378
2022-09-28T09:47:12.360Z,10.996655518394649
2022-09-28T09:53:41.050Z,13.889632107023411
2022-09-28T10:09:54.709Z,20.60535117056856
2022-09-28T10:16:24.932Z,16.702341137123746
2022-09-28T10:29:03.613Z,20.872909698996654
2022-09-28T11:00:12.401Z,23.46153846153846
2022-09-28T11:06:41.317Z,23.34113712374582
2022-09-28T11:13:09.415Z,22.846153846153847
2022-09-28T11:19:37.522Z,24.695652173913043
2022-09-28T11:31:45.914Z,21.153846153846153
2022-09-28T11:45:32.569Z,22.869565217391305
2022-09-28T11:56:18.034Z,24.762541806020067
2022-09-28T12:02:47.023Z,22.795986622073578
2022-09-28T12:10:07.895Z,22.036789297658864
2022-09-28T12:17:04.318Z,18.65886287625418
2022-09-28T12:23:42.624Z,18.59197324414716
2022-09-28T12:30:11.652Z,19.806020066889634
2022-09-28T12:36:41.994Z,19.565217391304348
2022-09-28T12:48:37.869Z,20.401337792642142
2022-09-28T12:58:38.270Z,20.22742474916388
2022-09-28T13:06:22.590Z,19.789297658862875
2022-09-28T13:14:56.410Z,17.585284280936456
2022-09-28T13:24:14.810Z,15.799331103678929
2022-09-28T13:33:03.915Z,16.120401337792643
2022-09-28T13:39:34.308Z,14.799331103678929
2022-09-28T13:50:43.090Z,14.17056856187291
2022-09-28T13:57:12.417Z,13.903010033444817
2022-09-28T14:03:42.217Z,12.387959866220736
2022-09-28T14:16:29.739Z,8.481605351170568
2022-09-28T14:22:58.977Z,8.006688963210703
2022-09-28T14:29:29.122Z,8.327759197324415
2022-09-28T14:35:57.857Z,8.103678929765886
2022-09-28T14:42:27.248Z,8.471571906354516
2022-09-28T14:52:19.850Z,7.2675585284280935
2022-09-28T15:03:13.395Z,6.983277591973244
2022-09-28T15:13:42.202Z,5.872909698996655
2022-09-28T15:20:13.146Z,6.852842809364549
2022-09-28T15:28:34.929Z,6.31438127090301
2022-09-28T15:41:55.987Z,5.618729096989966
2022-09-28T15:48:26.488Z,6.2675585284280935
2022-09-28T15:54:56.439Z,8.19732441471572
2022-09-28T16:01:26.695Z,8.896321070234114
2022-09-28T16:07:56.699Z,8.043478260869565
2022-09-28T16:14:26.656Z,7.183946488294314
2022-09-28T16:20:57.012Z,7.274247491638796
2022-09-28T16:28:10.486Z,6.729096989966555
2022-09-28T16:34:40.335Z,7.521739130434782
2022-09-28T16:43:56.475Z,7.635451505016722
2022-09-28T16:50:26.818Z,8.725752508361204
2022-09-28T16:59:03.108Z,12.31438127090301
2022-09-28T17:05:33.131Z,17.933110367892976
2022-09-28T17:18:21.502Z,22.23076923076923
2022-09-28T17:27:21.474Z,19.91973244147157
2022-09-28T17:33:51.508Z,18.755852842809364
2022-09-28T17:40:21.517Z,18.361204013377925
2022-09-28T17:46:51.163Z,22.93645484949833
2022-09-28T17:53:21.441Z,24.70903010033445
2022-09-28T18:00:44.917Z,23.795986622073578
2022-09-28T18:25:51.197Z,23.956521739130434
2022-09-28T18:32:21.558Z,24.08695652173913
2022-09-28T18:38:51.709Z,25.678929765886288
2022-09-28T18:49:43.585Z,26.193979933110366
2022-09-28T18:56:17.233Z,27.334448160535118
2022-09-28T19:06:04.995Z,28.03010033444816
2022-09-28T19:12:36.645Z,26.732441471571907
2022-09-28T19:19:09.973Z,26.331103678929765
2022-09-28T19:25:54.372Z,27.62541806020067
2022-09-28T19:32:33.252Z,26.207357859531772
2022-09-28T19:39:08.818Z,28.752508361204015
2022-09-28T19:52:46.448Z,28.51839464882943
2022-09-28T19:59:21.053Z,28.54515050167224
2022-09-28T20:05:54.775Z,27.983277591973245
2022-09-28T20:12:28.680Z,26.307692307692307
2022-09-28T20:28:28.645Z,26.204013377926422
2022-09-28T20:40:59.348Z,25.94648829431438
2022-09-28T20:47:33.594Z,25.68561872909699
2022-09-28T20:54:06.994Z,24.899665551839465
2022-09-28T21:00:41.400Z,24.842809364548494
2022-09-28T21:34:15.591Z,24.91973244147157
2022-09-28T21:40:50.544Z,24.107023411371237
2022-09-28T21:47:25.938Z,24.471571906354516
2022-09-28T21:55:29.583Z,23.351170568561873
2022-09-28T22:02:04.576Z,23.94314381270903
2022-09-28T22:08:39.240Z,23.76923076923077
2022-09-28T22:25:25.700Z,27.51170568561873
2022-09-28T22:31:58.474Z,26.612040133779264
2022-09-28T22:38:32.055Z,24.548494983277592
2022-09-28T22:45:05.369Z,24.929765886287626
2022-09-28T22:51:39.712Z,22.381270903010034
2022-09-28T22:58:45.554Z,22.043478260869566
2022-09-28T23:05:20.830Z,23.25083612040134
2022-09-28T23:15:48.677Z,22.16722408026756
2022-09-28T23:22:23.541Z,22.49163879598662
2022-09-28T23:29:09.530Z,22.51839464882943
2022-09-28T23:36:05.238Z,22.68561872909699
2022-09-28T23:56:40.619Z,22.28428093645485
